Time;durP1;ratioP1;P1;durP2;ratioP2;P2;SDS_P1;SDS_P2;PMS_P1;PMS_P2;Temp;Humidity;BMP_temperature;BMP_pressure;BME280_temperature;BME280_humidity;BME280_pressure;Samples;Min_cycle;Max_cycle;Signal;HPM_P1;HPM_P2
2023/04/22 00:01:23;;;;;;;118.38;101.90;;;;;;;;;;5073007;28;20074;-70
2023/04/22 00:03:50;;;;;;;24.92;18.90;;;;;;;;;;5073106;28;20047;-69
2023/04/22 00:06:18;;;;;;;17.60;12.38;;;;;;;;;;5073165;28;20020;-69
2023/04/22 00:08:44;;;;;;;19.25;11.57;;;;;;;;;;5073171;28;20419;-70
2023/04/22 00:11:11;;;;;;;25.10;18.20;;;;;;;;;;5073292;28;20024;-69
2023/04/22 00:13:37;;;;;;;32.50;25.23;;;;;;;;;;5073180;28;20023;-69
2023/04/22 00:16:04;;;;;;;16.05;12.40;;;;;;;;;;5072877;28;20505;-71
2023/04/22 00:18:31;;;;;;;17.92;12.23;;;;;;;;;;5073097;28;20060;-76
2023/04/22 00:20:58;;;;;;;16.20;11.77;;;;;;;;;;5073029;28;20366;-72
2023/04/22 00:23:24;;;;;;;22.92;13.02;;;;;;;;;;5072997;28;20380;-71
2023/04/22 00:25:51;;;;;;;20.92;12.50;;;;;;;;;;5072912;28;20032;-71
2023/04/22 00:28:18;;;;;;;17.65;11.90;;;;;;;;;;5073043;28;20025;-71
2023/04/22 00:30:45;;;;;;;17.00;11.18;;;;;;;;;;5072961;28;20419;-73
2023/04/22 00:33:11;;;;;;;16.08;12.27;;;;;;;;;;5072827;28;20028;-72
2023/04/22 00:35:38;;;;;;;16.60;11.73;;;;;;;;;;5072931;28;20474;-73
2023/04/22 00:38:04;;;;;;;14.60;10.57;;;;;;;;;;5072895;28;20118;-72
2023/04/22 00:40:31;;;;;;;16.38;11.98;;;;;;;;;;5074463;28;20044;-72
2023/04/22 00:42:59;;;;;;;16.05;12.35;;;;;;;;;;5076567;28;20043;-73
2023/04/22 00:45:26;;;;;;;16.77;11.73;;;;;;;;;;5076495;28;20020;-73
2023/04/22 00:47:53;;;;;;;16.83;12.18;;;;;;;;;;5076251;28;20029;-73
2023/04/22 00:50:19;;;;;;;19.48;12.68;;;;;;;;;;5073581;28;20028;-72
2023/04/22 00:52:46;;;;;;;15.45;11.82;;;;;;;;;;5056464;28;20024;-73
2023/04/22 00:55:13;;;;;;;21.15;13.10;;;;;;;;;;5062756;28;20029;-72
2023/04/22 00:57:39;;;;;;;15.60;13.88;;;;;;;;;;5076434;28;20032;-72
2023/04/22 01:00:08;;;;;;;18.25;13.32;;;;;;;;;;5076262;28;20070;-72
2023/04/22 01:02:38;;;;;;;22.38;12.32;;;;;;;;;;5076082;28;20103;-71
2023/04/22 01:05:08;;;;;;;17.20;11.55;;;;;;;;;;5076065;28;20359;-70
2023/04/22 01:07:35;;;;;;;14.50;11.98;;;;;;;;;;5076020;28;20020;-71
2023/04/22 01:10:02;;;;;;;19.92;13.13;;;;;;;;;;5075999;28;20032;-71
2023/04/22 01:12:29;;;;;;;17.05;12.45;;;;;;;;;;5076098;28;20065;-70
2023/04/22 01:14:56;;;;;;;18.45;13.77;;;;;;;;;;5075833;28;20567;-70
2023/04/22 01:17:23;;;;;;;14.82;12.82;;;;;;;;;;5075749;28;20028;-71
2023/04/22 01:19:51;;;;;;;18.00;12.25;;;;;;;;;;5074536;28;20405;-70
2023/04/22 01:22:18;;;;;;;17.08;13.73;;;;;;;;;;5076100;28;20438;-69
2023/04/22 01:24:45;;;;;;;20.27;13.63;;;;;;;;;;5075858;28;20025;-68
2023/04/22 01:27:12;;;;;;;18.98;14.02;;;;;;;;;;5075885;28;20031;-69
2023/04/22 01:29:39;;;;;;;15.25;13.35;;;;;;;;;;5075690;28;20503;-71
2023/04/22 01:32:06;;;;;;;17.13;14.13;;;;;;;;;;5075563;28;20048;-69
2023/04/22 01:34:33;;;;;;;18.10;13.65;;;;;;;;;;5075462;28;20027;-69
2023/04/22 01:36:59;;;;;;;23.40;20.20;;;;;;;;;;5075543;28;20032;-68
2023/04/22 01:39:26;;;;;;;21.92;15.27;;;;;;;;;;5075314;28;20020;-71
2023/04/22 01:41:53;;;;;;;23.35;14.25;;;;;;;;;;5075448;28;20074;-70
2023/04/22 01:44:20;;;;;;;18.50;14.02;;;;;;;;;;5075439;28;20055;-70
2023/04/22 01:46:46;;;;;;;17.85;13.95;;;;;;;;;;5075232;28;20469;-71
2023/04/22 01:49:13;;;;;;;17.73;14.73;;;;;;;;;;5075217;28;20070;-72
2023/04/22 01:51:40;;;;;;;18.92;15.45;;;;;;;;;;5074888;28;20534;-72
2023/04/22 01:54:06;;;;;;;25.55;19.83;;;;;;;;;;5066276;28;20031;-71
2023/04/22 01:56:33;;;;;;;18.75;14.32;;;;;;;;;;5066002;28;20074;-71
2023/04/22 01:58:59;;;;;;;24.85;16.45;;;;;;;;;;5074529;28;20170;-72
2023/04/22 02:01:26;;;;;;;19.33;14.48;;;;;;;;;;5074013;28;20024;-72
2023/04/22 02:03:53;;;;;;;15.85;13.27;;;;;;;;;;5075016;28;20029;-72
2023/04/22 02:06:19;;;;;;;17.55;14.00;;;;;;;;;;5074515;28;20034;-72
2023/04/22 02:08:46;;;;;;;15.60;12.95;;;;;;;;;;5075708;28;20032;-71
2023/04/22 02:11:13;;;;;;;16.45;12.50;;;;;;;;;;5079271;28;20096;-70
2023/04/22 02:13:40;;;;;;;14.57;12.10;;;;;;;;;;5066053;28;20025;-71
2023/04/22 02:16:08;;;;;;;15.35;12.95;;;;;;;;;;5062856;28;20378;-71
2023/04/22 02:18:34;;;;;;;20.05;13.88;;;;;;;;;;5084114;28;20361;-73
2023/04/22 02:21:01;;;;;;;27.67;16.63;;;;;;;;;;5082893;28;20408;-72
2023/04/22 02:23:28;;;;;;;50.95;43.08;;;;;;;;;;5069971;28;20025;-71
2023/04/22 02:25:55;;;;;;;18.33;14.75;;;;;;;;;;5093033;28;20492;-74
2023/04/22 02:28:22;;;;;;;91.43;68.40;;;;;;;;;;5083604;28;20024;-72
2023/04/22 02:30:49;;;;;;;174.60;141.93;;;;;;;;;;5085736;28;20009;-73
2023/04/22 02:33:16;;;;;;;56.88;43.80;;;;;;;;;;5075801;28;20032;-74
2023/04/22 02:35:42;;;;;;;46.22;37.50;;;;;;;;;;5077722;28;20028;-70
2023/04/22 02:38:10;;;;;;;22.33;16.67;;;;;;;;;;5095618;28;20016;-73
2023/04/22 02:40:36;;;;;;;54.70;46.00;;;;;;;;;;5085473;28;20021;-70
2023/04/22 02:43:03;;;;;;;59.53;43.88;;;;;;;;;;5076371;28;20029;-71
2023/04/22 02:45:30;;;;;;;18.95;14.68;;;;;;;;;;5079310;28;20024;-69
2023/04/22 02:47:57;;;;;;;22.58;13.48;;;;;;;;;;5076868;28;20028;-69
2023/04/22 02:50:24;;;;;;;22.55;18.02;;;;;;;;;;5086866;28;20382;-68
2023/04/22 02:52:50;;;;;;;25.08;19.98;;;;;;;;;;5085269;28;20373;-71
2023/04/22 02:55:17;;;;;;;19.02;14.85;;;;;;;;;;5078897;28;20167;-69
2023/04/22 02:57:44;;;;;;;18.35;14.13;;;;;;;;;;5075592;28;20029;-68
2023/04/22 03:00:12;;;;;;;19.20;13.77;;;;;;;;;;5094380;28;20034;-70
2023/04/22 03:02:39;;;;;;;22.02;14.07;;;;;;;;;;5080494;28;20035;-67
2023/04/22 03:05:06;;;;;;;16.20;13.20;;;;;;;;;;5067242;28;20519;-68
2023/04/22 03:07:32;;;;;;;17.50;13.32;;;;;;;;;;5072696;28;20032;-67
2023/04/22 03:09:59;;;;;;;18.38;14.07;;;;;;;;;;5073356;28;20527;-67
2023/04/22 03:12:25;;;;;;;18.40;14.30;;;;;;;;;;5074784;28;20359;-68
2023/04/22 03:14:52;;;;;;;20.33;14.07;;;;;;;;;;5073823;28;20033;-69
2023/04/22 03:17:19;;;;;;;16.23;14.00;;;;;;;;;;5072655;28;20058;-70
2023/04/22 03:19:46;;;;;;;18.50;13.77;;;;;;;;;;5074654;28;20028;-72
2023/04/22 03:22:13;;;;;;;20.58;14.95;;;;;;;;;;5074830;28;20024;-68
2023/04/22 03:24:40;;;;;;;19.15;12.73;;;;;;;;;;5074840;28;20381;-70
2023/04/22 03:27:06;;;;;;;14.82;12.77;;;;;;;;;;5071878;28;20040;-69
2023/04/22 03:29:33;;;;;;;18.85;15.05;;;;;;;;;;5072845;28;20029;-68
2023/04/22 03:31:59;;;;;;;19.15;15.18;;;;;;;;;;5077445;28;20016;-68
2023/04/22 03:34:26;;;;;;;25.15;20.98;;;;;;;;;;5080127;28;20077;-68
2023/04/22 03:36:53;;;;;;;22.73;18.42;;;;;;;;;;5083018;28;20039;-68
2023/04/22 03:39:19;;;;;;;21.20;15.45;;;;;;;;;;5072774;28;20032;-70
2023/04/22 03:41:46;;;;;;;21.58;17.95;;;;;;;;;;5074910;28;20098;-70
2023/04/22 03:44:13;;;;;;;20.02;15.52;;;;;;;;;;5074286;28;20162;-70
2023/04/22 03:46:39;;;;;;;19.48;17.38;;;;;;;;;;5064594;28;20055;-69
2023/04/22 03:49:06;;;;;;;19.08;14.10;;;;;;;;;;5072425;28;20099;-68
2023/04/22 03:51:33;;;;;;;41.15;33.13;;;;;;;;;;5068394;28;20408;-69
2023/04/22 03:53:59;;;;;;;49.22;43.58;;;;;;;;;;5069704;28;20078;-68
2023/04/22 03:56:26;;;;;;;27.55;21.80;;;;;;;;;;5073457;28;20028;-67
2023/04/22 03:58:53;;;;;;;14.23;12.45;;;;;;;;;;5060118;28;20040;-69
2023/04/22 04:01:19;;;;;;;25.75;20.50;;;;;;;;;;5069031;28;20035;-67
2023/04/22 04:03:46;;;;;;;27.77;21.23;;;;;;;;;;5074329;28;20443;-68
2023/04/22 04:06:12;;;;;;;27.17;23.02;;;;;;;;;;5081896;28;20146;-67
2023/04/22 04:08:39;;;;;;;13.07;10.65;;;;;;;;;;5057783;28;20079;-71
2023/04/22 04:11:06;;;;;;;14.63;11.68;;;;;;;;;;5059639;28;20482;-66
2023/04/22 04:13:32;;;;;;;14.82;11.05;;;;;;;;;;5065687;28;20024;-73
2023/04/22 04:16:00;;;;;;;13.32;9.30;;;;;;;;;;5065100;28;20127;-70
2023/04/22 04:18:28;;;;;;;15.60;11.68;;;;;;;;;;5070042;28;20255;-72
2023/04/22 04:20:55;;;;;;;11.43;9.85;;;;;;;;;;5067369;28;20031;-70
2023/04/22 04:23:22;;;;;;;11.50;9.45;;;;;;;;;;5070630;28;20025;-72
2023/04/22 04:25:49;;;;;;;15.00;9.00;;;;;;;;;;5072194;28;20035;-69
2023/04/22 04:28:16;;;;;;;12.27;9.70;;;;;;;;;;5069108;28;20021;-71
2023/04/22 04:30:43;;;;;;;10.88;9.73;;;;;;;;;;5066945;28;20182;-73
2023/04/22 04:33:10;;;;;;;10.95;9.77;;;;;;;;;;5066092;28;20025;-69
2023/04/22 04:35:37;;;;;;;10.70;9.52;;;;;;;;;;5067178;28;20012;-67
2023/04/22 04:38:05;;;;;;;14.18;9.63;;;;;;;;;;5063243;28;20036;-69
2023/04/22 04:40:32;;;;;;;10.27;8.75;;;;;;;;;;5067634;28;20036;-70
2023/04/22 04:43:01;;;;;;;10.40;9.30;;;;;;;;;;5066744;28;20070;-69
2023/04/22 04:45:28;;;;;;;13.32;9.52;;;;;;;;;;5067764;28;20028;-73
2023/04/22 04:47:55;;;;;;;12.20;9.23;;;;;;;;;;5064390;28;20604;-75
2023/04/22 04:50:22;;;;;;;9.77;8.77;;;;;;;;;;5070630;28;20480;-71
2023/04/22 04:52:48;;;;;;;12.25;10.30;;;;;;;;;;5074538;28;20037;-73
2023/04/22 04:55:15;;;;;;;16.85;10.23;;;;;;;;;;5074922;28;20378;-71
2023/04/22 04:57:44;;;;;;;13.05;10.35;;;;;;;;;;5071573;28;20110;-71
2023/04/22 05:00:12;;;;;;;11.52;9.82;;;;;;;;;;5059716;28;20378;-72
2023/04/22 05:02:39;;;;;;;13.18;10.88;;;;;;;;;;5069107;28;20482;-73
2023/04/22 05:05:06;;;;;;;12.40;10.55;;;;;;;;;;5076045;28;20040;-76
2023/04/22 05:07:33;;;;;;;15.02;10.68;;;;;;;;;;5075579;28;20020;-72
2023/04/22 05:10:00;;;;;;;20.45;14.13;;;;;;;;;;5076467;28;20031;-70
2023/04/22 05:12:26;;;;;;;13.65;9.55;;;;;;;;;;5076047;28;20025;-70
2023/04/22 05:14:53;;;;;;;12.07;10.77;;;;;;;;;;5076098;28;20135;-72
2023/04/22 05:17:20;;;;;;;14.57;9.35;;;;;;;;;;5076037;28;20359;-71
2023/04/22 05:19:47;;;;;;;14.18;11.30;;;;;;;;;;5074570;28;20489;-73
2023/04/22 05:22:13;;;;;;;18.30;10.13;;;;;;;;;;5075983;28;20037;-72
2023/04/22 05:24:40;;;;;;;11.55;9.75;;;;;;;;;;5074934;28;20107;-71
2023/04/22 05:27:07;;;;;;;17.00;11.30;;;;;;;;;;5063759;28;20101;-70
2023/04/22 05:29:33;;;;;;;12.55;10.77;;;;;;;;;;5088012;28;20461;-74
2023/04/22 05:32:00;;;;;;;18.50;10.18;;;;;;;;;;5059946;28;20017;-73
2023/04/22 05:34:27;;;;;;;20.33;10.25;;;;;;;;;;5077200;28;20146;-75
2023/04/22 05:36:53;;;;;;;15.98;11.07;;;;;;;;;;5096126;28;20020;-73
2023/04/22 05:39:20;;;;;;;17.85;11.50;;;;;;;;;;5089978;28;20028;-76
2023/04/22 05:41:47;;;;;;;18.25;10.85;;;;;;;;;;5075764;28;20027;-74
2023/04/22 05:44:14;;;;;;;14.75;9.20;;;;;;;;;;5075520;28;20029;-75
2023/04/22 05:46:40;;;;;;;12.23;9.07;;;;;;;;;;5075457;28;20023;-76
2023/04/22 05:49:07;;;;;;;15.85;9.48;;;;;;;;;;5075735;28;20013;-79
2023/04/22 05:51:33;;;;;;;20.10;10.73;;;;;;;;;;5074808;28;20056;-78
2023/04/22 05:54:00;;;;;;;13.38;10.50;;;;;;;;;;5071035;28;20015;-78
2023/04/22 05:56:27;;;;;;;31.25;13.88;;;;;;;;;;5062614;28;20060;-75
2023/04/22 05:58:53;;;;;;;39.88;18.50;;;;;;;;;;5075748;28;20378;-75
2023/04/22 06:41:08;;;;;;;33.42;28.00;;;;;;;;;;5091597;28;20445;-73
2023/04/22 06:43:34;;;;;;;55.42;38.67;;;;;;;;;;5091285;28;20511;-72
2023/04/22 06:46:01;;;;;;;31.83;23.23;;;;;;;;;;5078111;28;20024;-70
2023/04/22 06:48:28;;;;;;;70.32;54.28;;;;;;;;;;5083938;28;20017;-70
2023/04/22 06:50:54;;;;;;;43.80;32.72;;;;;;;;;;5090705;28;20469;-69
2023/04/22 06:53:21;;;;;;;25.60;18.45;;;;;;;;;;5081353;28;20033;-68
2023/04/22 06:55:49;;;;;;;23.25;16.38;;;;;;;;;;5073929;28;20016;-68
2023/04/22 06:58:15;;;;;;;24.25;17.27;;;;;;;;;;5071750;28;20028;-71
2023/04/22 07:00:42;;;;;;;20.48;14.80;;;;;;;;;;5071276;28;20017;-69
2023/04/22 07:03:08;;;;;;;25.15;14.95;;;;;;;;;;5083684;28;20035;-66
2023/04/22 07:05:35;;;;;;;19.67;14.20;;;;;;;;;;5087320;28;20016;-67
2023/04/22 07:08:02;;;;;;;20.40;13.38;;;;;;;;;;5090947;28;20121;-69
2023/04/22 07:10:28;;;;;;;19.50;13.05;;;;;;;;;;5090844;28;20107;-70
2023/04/22 07:12:55;;;;;;;18.10;15.13;;;;;;;;;;5082457;28;20130;-65
2023/04/22 07:15:21;;;;;;;48.05;38.78;;;;;;;;;;5077085;28;20107;-67
2023/04/22 07:17:48;;;;;;;121.93;91.63;;;;;;;;;;5079736;28;20081;-65
2023/04/22 07:20:15;;;;;;;38.88;28.63;;;;;;;;;;5088029;28;20078;-63
2023/04/22 07:22:41;;;;;;;17.48;12.88;;;;;;;;;;5085768;28;20095;-64
2023/04/22 07:25:08;;;;;;;41.55;30.75;;;;;;;;;;5078858;28;20028;-65
2023/04/22 07:27:35;;;;;;;33.70;22.65;;;;;;;;;;5069613;28;20021;-65
2023/04/22 07:30:02;;;;;;;11.68;9.45;;;;;;;;;;5080804;28;20032;-67
2023/04/22 07:32:29;;;;;;;12.27;7.63;;;;;;;;;;5089362;28;20393;-68
2023/04/22 07:34:56;;;;;;;10.13;7.65;;;;;;;;;;5089862;28;20032;-71
2023/04/22 07:37:22;;;;;;;10.38;8.13;;;;;;;;;;5084542;28;20381;-69
2023/04/22 07:39:49;;;;;;;12.07;9.73;;;;;;;;;;5065916;28;20041;-68
2023/04/22 07:42:16;;;;;;;15.40;9.35;;;;;;;;;;5055481;28;20127;-68
2023/04/22 07:44:42;;;;;;;8.10;7.20;;;;;;;;;;5068986;28;20093;-67
2023/04/22 07:47:09;;;;;;;11.27;8.25;;;;;;;;;;5068877;28;20078;-67
2023/04/22 07:49:36;;;;;;;10.60;6.88;;;;;;;;;;5068520;28;20028;-70
2023/04/22 07:52:02;;;;;;;9.48;5.93;;;;;;;;;;5046957;28;20029;-68
2023/04/22 07:54:29;;;;;;;7.13;5.60;;;;;;;;;;5046059;28;20489;-68
2023/04/22 07:56:57;;;;;;;7.32;5.30;;;;;;;;;;5046833;28;20053;-69
2023/04/22 07:59:23;;;;;;;6.35;5.20;;;;;;;;;;5049253;28;20029;-70
2023/04/22 08:01:50;;;;;;;7.72;5.50;;;;;;;;;;5052290;28;20023;-68
2023/04/22 08:04:17;;;;;;;6.70;5.05;;;;;;;;;;5055321;28;20473;-67
2023/04/22 08:06:43;;;;;;;74.18;57.55;;;;;;;;;;5053179;28;20032;-68
2023/04/22 08:09:10;;;;;;;71.03;53.75;;;;;;;;;;5054903;28;20021;-71
2023/04/22 08:11:37;;;;;;;10.38;9.27;;;;;;;;;;5050748;28;20538;-70
2023/04/22 08:14:03;;;;;;;28.90;21.92;;;;;;;;;;5050314;28;20045;-68
2023/04/22 08:16:30;;;;;;;19.73;15.35;;;;;;;;;;5049145;28;20400;-75
2023/04/22 08:18:57;;;;;;;22.55;15.63;;;;;;;;;;5045569;28;20394;-70
2023/04/22 08:21:23;;;;;;;81.40;62.08;;;;;;;;;;5036919;28;20475;-70
2023/04/22 08:23:50;;;;;;;52.25;41.00;;;;;;;;;;5047596;28;20028;-69
2023/04/22 08:26:17;;;;;;;31.48;22.63;;;;;;;;;;5049484;28;20029;-70
2023/04/22 08:28:44;;;;;;;142.55;101.20;;;;;;;;;;5051294;28;20039;-70
2023/04/22 08:31:11;;;;;;;15.30;11.30;;;;;;;;;;5053297;28;20028;-69
2023/04/22 08:33:40;;;;;;;8.85;5.53;;;;;;;;;;5050271;28;20293;-70
2023/04/22 08:36:07;;;;;;;10.52;5.75;;;;;;;;;;5049417;28;20043;-71
2023/04/22 08:38:34;;;;;;;29.63;22.17;;;;;;;;;;5049609;28;20458;-68
2023/04/22 08:41:01;;;;;;;56.13;42.50;;;;;;;;;;5049172;28;20099;-68
2023/04/22 08:43:28;;;;;;;24.58;18.75;;;;;;;;;;5053518;28;20021;-69
2023/04/22 08:45:55;;;;;;;67.60;50.72;;;;;;;;;;5047008;28;20021;-66
2023/04/22 08:48:22;;;;;;;10.43;8.38;;;;;;;;;;5036089;28;20021;-70
2023/04/22 08:50:50;;;;;;;52.53;40.25;;;;;;;;;;5048506;28;20100;-70
2023/04/22 08:53:16;;;;;;;30.73;25.10;;;;;;;;;;5040885;28;20076;-71
2023/04/22 08:55:44;;;;;;;15.60;12.90;;;;;;;;;;5042877;28;20028;-69
2023/04/22 08:58:11;;;;;;;24.30;19.73;;;;;;;;;;5043309;28;20024;-68
2023/04/22 09:00:39;;;;;;;17.92;14.80;;;;;;;;;;5041971;28;20028;-69
2023/04/22 09:03:06;;;;;;;111.85;88.53;;;;;;;;;;5052353;28;20025;-68
2023/04/22 09:05:33;;;;;;;138.30;104.25;;;;;;;;;;5043049;28;20467;-69
2023/04/22 09:08:00;;;;;;;120.88;92.18;;;;;;;;;;5051726;28;20025;-72
2023/04/22 09:10:27;;;;;;;28.02;20.83;;;;;;;;;;5052695;28;20025;-71
2023/04/22 09:12:54;;;;;;;14.18;9.32;;;;;;;;;;5045631;28;20033;-71
2023/04/22 09:15:21;;;;;;;11.73;7.35;;;;;;;;;;5062594;28;20120;-68
2023/04/22 09:17:47;;;;;;;10.10;6.82;;;;;;;;;;5051555;28;20056;-68
2023/04/22 09:20:14;;;;;;;10.90;7.22;;;;;;;;;;5053765;28;20115;-69
2023/04/22 09:22:42;;;;;;;80.60;59.88;;;;;;;;;;5052692;28;20033;-69
2023/04/22 09:25:19;;;;;;;45.00;33.95;;;;;;;;;;5054639;28;20013;-67
2023/04/22 09:28:03;;;;;;;57.22;42.85;;;;;;;;;;5047640;28;20047;-67
2023/04/22 09:30:32;;;;;;;41.47;30.27;;;;;;;;;;5049758;28;20033;-65
2023/04/22 09:33:00;;;;;;;142.75;107.07;;;;;;;;;;5053354;28;20033;-67
2023/04/22 09:35:28;;;;;;;23.52;15.52;;;;;;;;;;5050019;28;20029;-67
2023/04/22 09:37:55;;;;;;;14.75;8.90;;;;;;;;;;5046542;28;20028;-67
2023/04/22 09:40:22;;;;;;;12.55;8.63;;;;;;;;;;5033643;28;20041;-67
2023/04/22 09:42:50;;;;;;;11.77;7.90;;;;;;;;;;5034178;28;20067;-68
2023/04/22 09:45:27;;;;;;;15.05;8.93;;;;;;;;;;5047898;28;20367;-68
2023/04/22 09:47:55;;;;;;;12.52;8.35;;;;;;;;;;5052251;28;20033;-69
2023/04/22 09:50:22;;;;;;;13.88;9.40;;;;;;;;;;5053857;28;20048;-71
2023/04/22 09:53:00;;;;;;;14.48;9.77;;;;;;;;;;5047572;28;20025;-71
2023/04/22 09:55:28;;;;;;;15.13;9.15;;;;;;;;;;5054220;28;20025;-70
2023/04/22 09:57:57;;;;;;;12.95;9.35;;;;;;;;;;5053940;28;20021;-70
2023/04/22 10:00:25;;;;;;;12.00;8.77;;;;;;;;;;5053546;28;20032;-72
2023/04/22 10:02:51;;;;;;;13.82;8.27;;;;;;;;;;5054127;28;20021;-70
2023/04/22 10:05:19;;;;;;;11.10;8.38;;;;;;;;;;5047657;28;20031;-70
2023/04/22 10:07:46;;;;;;;13.90;8.82;;;;;;;;;;5047192;28;20079;-69
2023/04/22 10:10:13;;;;;;;303.65;258.30;;;;;;;;;;5039748;28;20075;-70
2023/04/22 10:12:39;;;;;;;33.90;22.20;;;;;;;;;;5033600;28;20037;-68
2023/04/22 10:15:07;;;;;;;16.35;11.40;;;;;;;;;;5041217;28;20032;-68
2023/04/22 10:17:35;;;;;;;18.55;11.93;;;;;;;;;;5036799;28;20030;-76
2023/04/22 10:20:03;;;;;;;17.50;11.85;;;;;;;;;;5033434;28;20022;-73
2023/04/22 10:22:31;;;;;;;14.95;10.27;;;;;;;;;;5033337;28;20433;-71
2023/04/22 10:24:58;;;;;;;14.73;11.50;;;;;;;;;;5033404;28;20136;-70
2023/04/22 10:27:25;;;;;;;12.07;10.70;;;;;;;;;;5033470;28;20032;-70
2023/04/22 10:29:51;;;;;;;14.07;10.60;;;;;;;;;;5033350;28;20148;-70
2023/04/22 10:32:18;;;;;;;83.93;69.95;;;;;;;;;;5035149;28;20415;-71
2023/04/22 10:34:47;;;;;;;68.03;56.47;;;;;;;;;;5053229;28;20064;-72
2023/04/22 10:37:14;;;;;;;78.10;67.78;;;;;;;;;;5050991;28;20431;-72
2023/04/22 10:39:42;;;;;;;44.03;35.45;;;;;;;;;;5041818;28;20048;-69
2023/04/22 10:42:09;;;;;;;20.38;15.55;;;;;;;;;;5033232;28;20088;-73
2023/04/22 10:44:45;;;;;;;59.88;48.40;;;;;;;;;;5033030;28;20096;-71
2023/04/22 10:47:12;;;;;;;137.98;101.90;;;;;;;;;;5047678;28;20032;-72
2023/04/22 10:49:38;;;;;;;108.22;80.80;;;;;;;;;;5052524;28;20425;-73
2023/04/22 10:52:08;;;;;;;53.30;43.95;;;;;;;;;;5033832;28;20034;-75
2023/04/22 10:54:35;;;;;;;33.15;26.58;;;;;;;;;;5031918;28;20079;-74
2023/04/22 10:57:05;;;;;;;12.27;9.40;;;;;;;;;;5032978;28;20120;-72
2023/04/22 10:59:33;;;;;;;14.50;9.30;;;;;;;;;;5033126;28;20022;-74
2023/04/22 11:02:01;;;;;;;11.43;10.00;;;;;;;;;;5039664;28;20025;-75
2023/04/22 11:04:28;;;;;;;16.80;11.82;;;;;;;;;;5053192;28;20100;-73
2023/04/22 11:07:15;;;;;;;11.18;9.15;;;;;;;;;;5050573;28;20025;-74
2023/04/22 11:09:45;;;;;;;27.33;21.25;;;;;;;;;;5052954;28;20500;-68
2023/04/22 11:12:31;;;;;;;41.53;30.15;;;;;;;;;;5052538;28;20036;-76
2023/04/22 11:14:58;;;;;;;13.90;11.77;;;;;;;;;;5050969;28;20033;-79
2023/04/22 11:17:26;;;;;;;42.65;28.27;;;;;;;;;;5052983;28;20025;-73
2023/04/22 11:19:55;;;;;;;35.63;26.73;;;;;;;;;;5050759;28;20113;-76
2023/04/22 11:22:24;;;;;;;13.88;11.13;;;;;;;;;;5051932;28;20009;-75
2023/04/22 11:25:00;;;;;;;14.13;9.30;;;;;;;;;;5049358;28;20096;-77
2023/04/22 11:27:29;;;;;;;12.82;11.13;;;;;;;;;;5055862;28;20432;-75
2023/04/22 11:30:00;;;;;;;24.77;18.13;;;;;;;;;;5056598;28;20415;-72
2023/04/22 11:32:28;;;;;;;33.40;22.20;;;;;;;;;;5056606;28;20021;-77
2023/04/22 11:34:54;;;;;;;328.30;281.70;;;;;;;;;;5056347;28;20481;-76
2023/04/22 11:37:21;;;;;;;63.45;43.50;;;;;;;;;;5056434;28;20051;-76
2023/04/22 11:39:51;;;;;;;43.95;27.88;;;;;;;;;;5054788;28;20060;-76
2023/04/22 11:42:26;;;;;;;35.90;20.45;;;;;;;;;;5037679;28;20049;-75
2023/04/22 11:44:53;;;;;;;62.65;47.05;;;;;;;;;;5036387;28;20044;-75
2023/04/22 11:47:19;;;;;;;50.97;36.38;;;;;;;;;;5053913;28;20029;-74
2023/04/22 11:49:58;;;;;;;52.33;44.15;;;;;;;;;;5056042;28;20029;-76
2023/04/22 11:52:41;;;;;;;47.58;32.80;;;;;;;;;;5056186;28;20224;-75
2023/04/22 11:55:10;;;;;;;43.17;32.10;;;;;;;;;;5054634;28;20083;-74
2023/04/22 11:57:39;;;;;;;29.88;18.80;;;;;;;;;;5052618;28;20025;-76
2023/04/22 12:00:07;;;;;;;29.25;17.77;;;;;;;;;;5056005;28;20525;-77
2023/04/22 12:02:33;;;;;;;26.88;17.23;;;;;;;;;;5041767;28;20076;-76
2023/04/22 12:05:02;;;;;;;27.00;18.02;;;;;;;;;;5043765;28;20021;-76
2023/04/22 12:07:29;;;;;;;50.22;40.10;;;;;;;;;;5039196;28;20112;-75
2023/04/22 12:09:56;;;;;;;49.88;41.17;;;;;;;;;;5051669;28;20281;-72
2023/04/22 12:12:24;;;;;;;30.17;20.65;;;;;;;;;;5055224;28;20033;-69
2023/04/22 12:14:51;;;;;;;48.55;34.10;;;;;;;;;;5055532;28;20083;-72
2023/04/22 12:17:22;;;;;;;52.10;35.88;;;;;;;;;;5054238;28;20039;-71
2023/04/22 12:19:53;;;;;;;38.03;21.55;;;;;;;;;;5056012;28;20029;-71
2023/04/22 12:22:26;;;;;;;28.27;16.77;;;;;;;;;;5055923;28;20025;-72
2023/04/22 12:24:53;;;;;;;25.48;15.95;;;;;;;;;;5055994;28;20024;-70
2023/04/22 12:27:20;;;;;;;25.33;15.43;;;;;;;;;;5054191;28;20025;-72
2023/04/22 12:29:56;;;;;;;43.67;30.10;;;;;;;;;;5055037;28;20029;-70
2023/04/22 12:32:23;;;;;;;146.88;118.47;;;;;;;;;;5055083;28;20029;-72
2023/04/22 12:34:50;;;;;;;51.33;37.70;;;;;;;;;;5055509;28;20025;-70
2023/04/22 12:37:17;;;;;;;41.63;31.15;;;;;;;;;;5055672;28;20035;-65
2023/04/22 12:39:44;;;;;;;40.83;30.67;;;;;;;;;;5053586;28;20060;-73
2023/04/22 12:42:11;;;;;;;33.30;27.55;;;;;;;;;;5053292;28;20036;-66
2023/04/22 12:44:38;;;;;;;29.48;19.38;;;;;;;;;;5053085;28;20351;-67
2023/04/22 12:47:04;;;;;;;63.20;43.10;;;;;;;;;;5044097;28;20743;-69
2023/04/22 12:49:31;;;;;;;101.20;68.63;;;;;;;;;;5045149;28;20493;-72
2023/04/22 12:51:57;;;;;;;50.38;36.42;;;;;;;;;;5035918;28;20033;-68
2023/04/22 12:54:24;;;;;;;28.05;20.95;;;;;;;;;;5042024;28;20033;-66
2023/04/22 12:56:51;;;;;;;24.40;16.45;;;;;;;;;;5042213;28;20040;-67
2023/04/22 12:59:18;;;;;;;21.45;16.15;;;;;;;;;;5053892;28;20126;-69
2023/04/22 13:01:44;;;;;;;24.02;16.67;;;;;;;;;;5053129;28;20482;-67
2023/04/22 13:04:11;;;;;;;20.25;15.43;;;;;;;;;;5053353;28;20061;-68
2023/04/22 13:06:37;;;;;;;28.02;21.88;;;;;;;;;;5046434;28;20017;-70
2023/04/22 13:09:05;;;;;;;31.23;23.25;;;;;;;;;;5035370;28;20072;-72
2023/04/22 13:11:32;;;;;;;26.30;19.20;;;;;;;;;;5044235;28;20020;-72
2023/04/22 13:13:58;;;;;;;21.85;16.50;;;;;;;;;;5053374;28;20474;-72
2023/04/22 13:16:25;;;;;;;30.50;21.98;;;;;;;;;;5053660;28;20300;-67
2023/04/22 13:18:51;;;;;;;29.98;19.55;;;;;;;;;;5054396;28;20039;-67
2023/04/22 13:21:18;;;;;;;53.55;29.45;;;;;;;;;;5054258;28;20108;-72
2023/04/22 13:23:45;;;;;;;47.17;33.85;;;;;;;;;;5056364;28;20078;-68
2023/04/22 13:26:11;;;;;;;70.15;43.92;;;;;;;;;;5057972;28;20024;-70
2023/04/22 13:28:38;;;;;;;64.57;43.95;;;;;;;;;;5053779;28;20021;-70
2023/04/22 13:31:05;;;;;;;33.33;23.67;;;;;;;;;;5054116;28;20111;-72
2023/04/22 13:33:31;;;;;;;25.98;17.63;;;;;;;;;;5057281;28;20021;-67
2023/04/22 13:35:58;;;;;;;21.38;15.95;;;;;;;;;;5044786;28;20486;-70
2023/04/22 13:38:25;;;;;;;29.40;19.60;;;;;;;;;;5054637;28;20086;-68
2023/04/22 13:40:51;;;;;;;24.67;18.58;;;;;;;;;;5053196;28;20049;-70
2023/04/22 13:43:18;;;;;;;34.47;26.48;;;;;;;;;;5047023;28;20392;-70
2023/04/22 13:45:47;;;;;;;28.15;22.45;;;;;;;;;;5047957;28;20094;-71
2023/04/22 13:48:16;;;;;;;19.63;15.02;;;;;;;;;;5051963;28;20021;-73
2023/04/22 13:50:43;;;;;;;19.92;15.55;;;;;;;;;;5051863;28;20044;-69
2023/04/22 13:53:10;;;;;;;17.58;14.20;;;;;;;;;;5046903;28;20040;-67
2023/04/22 13:55:38;;;;;;;18.17;14.10;;;;;;;;;;5065626;28;20025;-68
2023/04/22 13:58:05;;;;;;;52.42;38.70;;;;;;;;;;5055110;28;20044;-68
2023/04/22 14:00:33;;;;;;;160.50;113.32;;;;;;;;;;5050287;28;20120;-69
2023/04/22 14:02:59;;;;;;;51.22;37.95;;;;;;;;;;5044905;28;20036;-68
2023/04/22 14:05:26;;;;;;;78.22;61.85;;;;;;;;;;5051552;28;20025;-66
2023/04/22 14:07:53;;;;;;;47.50;36.17;;;;;;;;;;5066212;28;20078;-73
2023/04/22 14:10:20;;;;;;;55.97;41.58;;;;;;;;;;5049689;28;20037;-73
2023/04/22 14:12:47;;;;;;;34.63;26.58;;;;;;;;;;5055233;28;20028;-69
2023/04/22 14:15:14;;;;;;;42.33;28.83;;;;;;;;;;5051986;28;20036;-71
2023/04/22 14:17:41;;;;;;;30.10;20.65;;;;;;;;;;5049482;28;20029;-71
2023/04/22 14:20:09;;;;;;;51.25;33.65;;;;;;;;;;5055166;28;20031;-71
2023/04/22 14:22:36;;;;;;;37.75;24.90;;;;;;;;;;5066719;28;20427;-75
2023/04/22 14:25:03;;;;;;;25.38;18.25;;;;;;;;;;5051328;28;20024;-75
2023/04/22 14:27:29;;;;;;;25.20;15.80;;;;;;;;;;5063360;28;20474;-75
2023/04/22 14:29:56;;;;;;;26.30;14.30;;;;;;;;;;5057048;28;20493;-75
2023/04/22 14:32:24;;;;;;;16.00;13.55;;;;;;;;;;5069431;28;20025;-74
2023/04/22 14:34:51;;;;;;;24.35;15.27;;;;;;;;;;5057706;28;20024;-75
2023/04/22 14:37:17;;;;;;;20.65;14.70;;;;;;;;;;5072934;28;20028;-75
2023/04/22 14:39:44;;;;;;;16.63;13.77;;;;;;;;;;5058878;28;20047;-75
2023/04/22 14:42:11;;;;;;;18.90;12.73;;;;;;;;;;5052045;28;20079;-74
2023/04/22 14:44:37;;;;;;;17.23;13.30;;;;;;;;;;5066247;28;20589;-75
2023/04/22 14:47:04;;;;;;;22.27;13.38;;;;;;;;;;5050885;28;20039;-74
2023/04/22 14:49:31;;;;;;;18.85;14.20;;;;;;;;;;5063156;28;20093;-74
2023/04/22 14:51:59;;;;;;;23.65;14.55;;;;;;;;;;5055230;28;20075;-74
2023/04/22 14:54:26;;;;;;;26.73;15.52;;;;;;;;;;5054417;28;20544;-74
2023/04/22 14:56:54;;;;;;;20.67;15.38;;;;;;;;;;5065502;28;20447;-71
2023/04/22 14:59:22;;;;;;;19.90;15.93;;;;;;;;;;5063705;28;20381;-72